sensor_id;sensor_type;location;lat;lon;timestamp;P1;durP1;ratioP1;P2;durP2;ratioP2
57155;SDS011;43023;59.928;10.682;2022-07-01T00:01:42;0.80;;;0.80;;
57155;SDS011;43023;59.928;10.682;2022-07-01T00:04:09;1.42;;;0.80;;
57155;SDS011;43023;59.928;10.682;2022-07-01T00:06:35;1.48;;;0.75;;
57155;SDS011;43023;59.928;10.682;2022-07-01T00:09:02;1.05;;;0.70;;
57155;SDS011;43023;59.928;10.682;2022-07-01T00:11:29;1.08;;;0.73;;
57155;SDS011;43023;59.928;10.682;2022-07-01T00:13:56;0.90;;;0.70;;
57155;SDS011;43023;59.928;10.682;2022-07-01T00:16:22;1.38;;;0.88;;
57155;SDS011;43023;59.928;10.682;2022-07-01T00:18:48;2.95;;;1.02;;
57155;SDS011;43023;59.928;10.682;2022-07-01T00:21:14;1.05;;;0.65;;
57155;SDS011;43023;59.928;10.682;2022-07-01T00:23:43;1.13;;;1.02;;
57155;SDS011;43023;59.928;10.682;2022-07-01T00:26:09;0.70;;;0.55;;
57155;SDS011;43023;59.928;10.682;2022-07-01T00:28:35;1.02;;;0.65;;
57155;SDS011;43023;59.928;10.682;2022-07-01T00:31:01;0.85;;;0.80;;
57155;SDS011;43023;59.928;10.682;2022-07-01T00:33:27;0.98;;;0.88;;
57155;SDS011;43023;59.928;10.682;2022-07-01T00:35:53;0.60;;;0.60;;
57155;SDS011;43023;59.928;10.682;2022-07-01T00:38:19;0.75;;;0.75;;
57155;SDS011;43023;59.928;10.682;2022-07-01T00:40:50;0.65;;;0.60;;
57155;SDS011;43023;59.928;10.682;2022-07-01T00:43:16;0.85;;;0.77;;
57155;SDS011;43023;59.928;10.682;2022-07-01T00:45:44;0.77;;;0.60;;
57155;SDS011;43023;59.928;10.682;2022-07-01T00:48:12;0.95;;;0.70;;
57155;SDS011;43023;59.928;10.682;2022-07-01T00:50:38;0.98;;;0.82;;
57155;SDS011;43023;59.928;10.682;2022-07-01T00:53:05;0.60;;;0.57;;
57155;SDS011;43023;59.928;10.682;2022-07-01T00:55:31;0.68;;;0.55;;
57155;SDS011;43023;59.928;10.682;2022-07-01T00:57:57;1.77;;;0.52;;
57155;SDS011;43023;59.928;10.682;2022-07-01T01:00:23;1.00;;;0.73;;
57155;SDS011;43023;59.928;10.682;2022-07-01T01:02:51;0.75;;;0.75;;
57155;SDS011;43023;59.928;10.682;2022-07-01T01:05:17;0.50;;;0.50;;
57155;SDS011;43023;59.928;10.682;2022-07-01T01:07:45;1.00;;;0.52;;
57155;SDS011;43023;59.928;10.682;2022-07-01T01:10:12;1.13;;;0.40;;
57155;SDS011;43023;59.928;10.682;2022-07-01T01:12:38;0.43;;;0.43;;
57155;SDS011;43023;59.928;10.682;2022-07-01T01:15:05;1.10;;;0.70;;
57155;SDS011;43023;59.928;10.682;2022-07-01T01:17:32;6.10;;;0.80;;
57155;SDS011;43023;59.928;10.682;2022-07-01T01:19:58;0.50;;;0.50;;
57155;SDS011;43023;59.928;10.682;2022-07-01T01:22:24;0.80;;;0.70;;
57155;SDS011;43023;59.928;10.682;2022-07-01T01:24:50;2.53;;;0.70;;
57155;SDS011;43023;59.928;10.682;2022-07-01T01:27:16;0.63;;;0.63;;
57155;SDS011;43023;59.928;10.682;2022-07-01T01:29:43;0.80;;;0.75;;
57155;SDS011;43023;59.928;10.682;2022-07-01T01:32:09;1.45;;;0.70;;
57155;SDS011;43023;59.928;10.682;2022-07-01T01:34:36;0.75;;;0.60;;
57155;SDS011;43023;59.928;10.682;2022-07-01T01:37:03;0.73;;;0.73;;
57155;SDS011;43023;59.928;10.682;2022-07-01T01:39:29;1.10;;;0.60;;
57155;SDS011;43023;59.928;10.682;2022-07-01T01:41:55;0.75;;;0.68;;
57155;SDS011;43023;59.928;10.682;2022-07-01T01:44:21;0.47;;;0.45;;
57155;SDS011;43023;59.928;10.682;2022-07-01T01:46:47;1.98;;;0.68;;
57155;SDS011;43023;59.928;10.682;2022-07-01T01:49:13;0.60;;;0.40;;
57155;SDS011;43023;59.928;10.682;2022-07-01T01:51:39;0.95;;;0.70;;
57155;SDS011;43023;59.928;10.682;2022-07-01T01:54:05;1.15;;;0.60;;
57155;SDS011;43023;59.928;10.682;2022-07-01T01:56:32;0.70;;;0.70;;
57155;SDS011;43023;59.928;10.682;2022-07-01T01:58:58;1.02;;;1.00;;
57155;SDS011;43023;59.928;10.682;2022-07-01T02:04:00;0.75;;;0.60;;
57155;SDS011;43023;59.928;10.682;2022-07-01T02:06:26;1.27;;;0.47;;
57155;SDS011;43023;59.928;10.682;2022-07-01T02:08:52;0.68;;;0.68;;
57155;SDS011;43023;59.928;10.682;2022-07-01T02:11:18;0.82;;;0.60;;
57155;SDS011;43023;59.928;10.682;2022-07-01T02:13:44;0.98;;;0.55;;
57155;SDS011;43023;59.928;10.682;2022-07-01T02:19:14;0.50;;;0.50;;
57155;SDS011;43023;59.928;10.682;2022-07-01T02:21:40;1.88;;;0.82;;
57155;SDS011;43023;59.928;10.682;2022-07-01T02:24:07;0.60;;;0.60;;
57155;SDS011;43023;59.928;10.682;2022-07-01T02:26:33;0.60;;;0.60;;
57155;SDS011;43023;59.928;10.682;2022-07-01T02:29:00;0.70;;;0.70;;
57155;SDS011;43023;59.928;10.682;2022-07-01T02:31:26;0.40;;;0.40;;
57155;SDS011;43023;59.928;10.682;2022-07-01T02:33:52;0.52;;;0.50;;
57155;SDS011;43023;59.928;10.682;2022-07-01T02:36:18;1.02;;;0.93;;
57155;SDS011;43023;59.928;10.682;2022-07-01T02:38:45;0.85;;;0.70;;
57155;SDS011;43023;59.928;10.682;2022-07-01T02:41:11;0.60;;;0.60;;
57155;SDS011;43023;59.928;10.682;2022-07-01T02:43:37;0.88;;;0.70;;
57155;SDS011;43023;59.928;10.682;2022-07-01T02:46:03;0.70;;;0.70;;
57155;SDS011;43023;59.928;10.682;2022-07-01T02:48:29;0.50;;;0.50;;
57155;SDS011;43023;59.928;10.682;2022-07-01T02:50:55;0.77;;;0.70;;
57155;SDS011;43023;59.928;10.682;2022-07-01T02:53:21;0.95;;;0.60;;
57155;SDS011;43023;59.928;10.682;2022-07-01T02:55:47;2.35;;;0.60;;
57155;SDS011;43023;59.928;10.682;2022-07-01T02:58:13;0.73;;;0.52;;
57155;SDS011;43023;59.928;10.682;2022-07-01T03:00:39;0.75;;;0.40;;
57155;SDS011;43023;59.928;10.682;2022-07-01T03:03:05;0.60;;;0.60;;
57155;SDS011;43023;59.928;10.682;2022-07-01T03:05:32;0.85;;;0.55;;
57155;SDS011;43023;59.928;10.682;2022-07-01T03:07:58;1.73;;;0.80;;
57155;SDS011;43023;59.928;10.682;2022-07-01T03:10:24;0.60;;;0.60;;
57155;SDS011;43023;59.928;10.682;2022-07-01T03:12:50;0.50;;;0.50;;
57155;SDS011;43023;59.928;10.682;2022-07-01T03:15:16;0.95;;;0.60;;
57155;SDS011;43023;59.928;10.682;2022-07-01T03:17:43;0.80;;;0.65;;
57155;SDS011;43023;59.928;10.682;2022-07-01T03:20:10;1.02;;;0.70;;
57155;SDS011;43023;59.928;10.682;2022-07-01T03:22:37;0.70;;;0.70;;
57155;SDS011;43023;59.928;10.682;2022-07-01T03:25:03;1.60;;;0.90;;
57155;SDS011;43023;59.928;10.682;2022-07-01T03:27:30;1.02;;;0.70;;
57155;SDS011;43023;59.928;10.682;2022-07-01T03:29:56;0.80;;;0.80;;
57155;SDS011;43023;59.928;10.682;2022-07-01T03:32:23;0.88;;;0.88;;
57155;SDS011;43023;59.928;10.682;2022-07-01T03:34:50;0.70;;;0.70;;
57155;SDS011;43023;59.928;10.682;2022-07-01T03:37:16;0.50;;;0.50;;
57155;SDS011;43023;59.928;10.682;2022-07-01T03:39:43;1.55;;;1.02;;
57155;SDS011;43023;59.928;10.682;2022-07-01T03:42:10;0.80;;;0.63;;
57155;SDS011;43023;59.928;10.682;2022-07-01T03:44:36;1.67;;;0.73;;
57155;SDS011;43023;59.928;10.682;2022-07-01T03:47:02;0.63;;;0.63;;
57155;SDS011;43023;59.928;10.682;2022-07-01T03:49:30;0.63;;;0.63;;
57155;SDS011;43023;59.928;10.682;2022-07-01T03:51:56;0.65;;;0.65;;
57155;SDS011;43023;59.928;10.682;2022-07-01T03:54:22;0.93;;;0.75;;
57155;SDS011;43023;59.928;10.682;2022-07-01T03:57:28;0.70;;;0.70;;
57155;SDS011;43023;59.928;10.682;2022-07-01T03:59:47;0.63;;;0.63;;
57155;SDS011;43023;59.928;10.682;2022-07-01T04:02:13;0.82;;;0.80;;
57155;SDS011;43023;59.928;10.682;2022-07-01T04:04:39;0.82;;;0.82;;
57155;SDS011;43023;59.928;10.682;2022-07-01T04:07:05;0.50;;;0.50;;
57155;SDS011;43023;59.928;10.682;2022-07-01T04:09:32;0.68;;;0.68;;
57155;SDS011;43023;59.928;10.682;2022-07-01T04:11:58;1.00;;;0.90;;
57155;SDS011;43023;59.928;10.682;2022-07-01T04:14:24;0.80;;;0.80;;
57155;SDS011;43023;59.928;10.682;2022-07-01T04:16:50;1.10;;;1.02;;
57155;SDS011;43023;59.928;10.682;2022-07-01T04:19:17;1.05;;;1.05;;
57155;SDS011;43023;59.928;10.682;2022-07-01T04:21:43;1.40;;;1.30;;
57155;SDS011;43023;59.928;10.682;2022-07-01T04:24:28;0.95;;;0.95;;
57155;SDS011;43023;59.928;10.682;2022-07-01T04:26:57;1.45;;;1.35;;
57155;SDS011;43023;59.928;10.682;2022-07-01T04:29:23;0.70;;;0.70;;
57155;SDS011;43023;59.928;10.682;2022-07-01T04:31:49;1.13;;;1.02;;
57155;SDS011;43023;59.928;10.682;2022-07-01T04:34:15;1.13;;;1.13;;
57155;SDS011;43023;59.928;10.682;2022-07-01T04:36:41;1.00;;;1.00;;
57155;SDS011;43023;59.928;10.682;2022-07-01T04:39:08;1.65;;;1.17;;
57155;SDS011;43023;59.928;10.682;2022-07-01T04:41:34;0.85;;;0.85;;
57155;SDS011;43023;59.928;10.682;2022-07-01T04:44:19;1.20;;;1.10;;
57155;SDS011;43023;59.928;10.682;2022-07-01T04:46:45;1.35;;;1.25;;
57155;SDS011;43023;59.928;10.682;2022-07-01T04:49:11;1.65;;;1.17;;
57155;SDS011;43023;59.928;10.682;2022-07-01T04:51:37;1.17;;;1.08;;
57155;SDS011;43023;59.928;10.682;2022-07-01T04:54:03;2.25;;;1.10;;
57155;SDS011;43023;59.928;10.682;2022-07-01T04:56:32;1.38;;;1.27;;
57155;SDS011;43023;59.928;10.682;2022-07-01T04:58:59;1.00;;;1.00;;
57155;SDS011;43023;59.928;10.682;2022-07-01T05:01:25;1.55;;;1.00;;
57155;SDS011;43023;59.928;10.682;2022-07-01T05:03:53;1.80;;;1.70;;
57155;SDS011;43023;59.928;10.682;2022-07-01T05:06:19;1.95;;;1.30;;
57155;SDS011;43023;59.928;10.682;2022-07-01T05:08:45;1.10;;;1.10;;
57155;SDS011;43023;59.928;10.682;2022-07-01T05:11:11;1.20;;;1.10;;
57155;SDS011;43023;59.928;10.682;2022-07-01T05:13:37;1.65;;;1.25;;
57155;SDS011;43023;59.928;10.682;2022-07-01T05:16:04;1.30;;;1.20;;
57155;SDS011;43023;59.928;10.682;2022-07-01T05:18:30;1.58;;;1.40;;
57155;SDS011;43023;59.928;10.682;2022-07-01T05:21:15;2.00;;;1.85;;
57155;SDS011;43023;59.928;10.682;2022-07-01T05:23:59;1.85;;;1.73;;
57155;SDS011;43023;59.928;10.682;2022-07-01T05:26:25;1.50;;;1.45;;
57155;SDS011;43023;59.928;10.682;2022-07-01T05:28:54;1.85;;;1.25;;
57155;SDS011;43023;59.928;10.682;2022-07-01T05:31:20;1.55;;;1.45;;
57155;SDS011;43023;59.928;10.682;2022-07-01T05:33:46;1.33;;;1.25;;
57155;SDS011;43023;59.928;10.682;2022-07-01T05:36:13;1.52;;;1.42;;
57155;SDS011;43023;59.928;10.682;2022-07-01T05:38:39;2.13;;;1.42;;
57155;SDS011;43023;59.928;10.682;2022-07-01T05:41:05;1.45;;;1.40;;
57155;SDS011;43023;59.928;10.682;2022-07-01T05:43:31;5.22;;;2.30;;
57155;SDS011;43023;59.928;10.682;2022-07-01T05:45:58;2.00;;;1.85;;
57155;SDS011;43023;59.928;10.682;2022-07-01T05:48:24;1.90;;;1.80;;
57155;SDS011;43023;59.928;10.682;2022-07-01T05:50:50;2.08;;;1.98;;
57155;SDS011;43023;59.928;10.682;2022-07-01T05:53:16;1.52;;;1.42;;
57155;SDS011;43023;59.928;10.682;2022-07-01T05:55:42;2.30;;;1.90;;
57155;SDS011;43023;59.928;10.682;2022-07-01T05:58:12;1.90;;;1.80;;
57155;SDS011;43023;59.928;10.682;2022-07-01T06:00:38;1.90;;;1.80;;
57155;SDS011;43023;59.928;10.682;2022-07-01T06:03:11;2.13;;;1.92;;
57155;SDS011;43023;59.928;10.682;2022-07-01T06:05:37;2.13;;;1.92;;
57155;SDS011;43023;59.928;10.682;2022-07-01T06:08:03;2.10;;;1.92;;
57155;SDS011;43023;59.928;10.682;2022-07-01T06:10:30;1.35;;;1.30;;
57155;SDS011;43023;59.928;10.682;2022-07-01T06:12:57;3.47;;;2.13;;
57155;SDS011;43023;59.928;10.682;2022-07-01T06:15:23;2.10;;;2.00;;
57155;SDS011;43023;59.928;10.682;2022-07-01T06:17:49;2.35;;;1.88;;
57155;SDS011;43023;59.928;10.682;2022-07-01T06:20:17;2.47;;;2.10;;
57155;SDS011;43023;59.928;10.682;2022-07-01T06:22:43;2.92;;;2.38;;
57155;SDS011;43023;59.928;10.682;2022-07-01T06:25:09;1.92;;;1.83;;
57155;SDS011;43023;59.928;10.682;2022-07-01T06:27:38;2.58;;;2.28;;
57155;SDS011;43023;59.928;10.682;2022-07-01T06:30:05;2.35;;;1.95;;
57155;SDS011;43023;59.928;10.682;2022-07-01T06:32:31;3.25;;;2.03;;
57155;SDS011;43023;59.928;10.682;2022-07-01T06:34:57;2.42;;;2.22;;
57155;SDS011;43023;59.928;10.682;2022-07-01T06:37:23;2.40;;;1.77;;
57155;SDS011;43023;59.928;10.682;2022-07-01T06:39:49;2.25;;;2.05;;
57155;SDS011;43023;59.928;10.682;2022-07-01T06:42:15;2.08;;;1.95;;
57155;SDS011;43023;59.928;10.682;2022-07-01T06:44:41;3.63;;;2.17;;
57155;SDS011;43023;59.928;10.682;2022-07-01T06:47:07;2.22;;;2.03;;
57155;SDS011;43023;59.928;10.682;2022-07-01T06:49:33;1.92;;;1.83;;
57155;SDS011;43023;59.928;10.682;2022-07-01T06:51:59;3.80;;;2.30;;
57155;SDS011;43023;59.928;10.682;2022-07-01T06:54:25;4.18;;;1.98;;
57155;SDS011;43023;59.928;10.682;2022-07-01T06:56:53;2.35;;;2.15;;
57155;SDS011;43023;59.928;10.682;2022-07-01T06:59:19;2.15;;;2.05;;
57155;SDS011;43023;59.928;10.682;2022-07-01T07:01:45;2.08;;;1.92;;
57155;SDS011;43023;59.928;10.682;2022-07-01T07:04:11;1.90;;;1.80;;
57155;SDS011;43023;59.928;10.682;2022-07-01T07:06:37;2.88;;;2.22;;
57155;SDS011;43023;59.928;10.682;2022-07-01T07:09:03;2.53;;;2.33;;
57155;SDS011;43023;59.928;10.682;2022-07-01T07:11:29;1.90;;;1.80;;
57155;SDS011;43023;59.928;10.682;2022-07-01T07:13:55;2.03;;;1.92;;
57155;SDS011;43023;59.928;10.682;2022-07-01T07:16:21;2.25;;;1.90;;
57155;SDS011;43023;59.928;10.682;2022-07-01T07:18:50;2.35;;;2.15;;
57155;SDS011;43023;59.928;10.682;2022-07-01T07:21:16;1.95;;;1.85;;
57155;SDS011;43023;59.928;10.682;2022-07-01T07:23:43;1.80;;;1.70;;
57155;SDS011;43023;59.928;10.682;2022-07-01T07:26:09;2.75;;;2.38;;
57155;SDS011;43023;59.928;10.682;2022-07-01T07:28:35;1.92;;;1.83;;
57155;SDS011;43023;59.928;10.682;2022-07-01T07:31:01;2.85;;;2.38;;
57155;SDS011;43023;59.928;10.682;2022-07-01T07:33:27;1.55;;;1.55;;
57155;SDS011;43023;59.928;10.682;2022-07-01T07:35:53;2.10;;;2.00;;
57155;SDS011;43023;59.928;10.682;2022-07-01T07:38:19;3.47;;;2.22;;
57155;SDS011;43023;59.928;10.682;2022-07-01T07:40:45;2.53;;;1.83;;
57155;SDS011;43023;59.928;10.682;2022-07-01T07:43:11;1.98;;;1.77;;
57155;SDS011;43023;59.928;10.682;2022-07-01T07:45:38;2.35;;;2.15;;
57155;SDS011;43023;59.928;10.682;2022-07-01T07:48:04;2.10;;;2.00;;
57155;SDS011;43023;59.928;10.682;2022-07-01T07:50:31;1.98;;;1.83;;
57155;SDS011;43023;59.928;10.682;2022-07-01T07:52:58;2.15;;;2.03;;
57155;SDS011;43023;59.928;10.682;2022-07-01T07:55:24;2.25;;;2.05;;
57155;SDS011;43023;59.928;10.682;2022-07-01T07:57:50;1.70;;;1.60;;
57155;SDS011;43023;59.928;10.682;2022-07-01T08:00:16;1.92;;;1.83;;
57155;SDS011;43023;59.928;10.682;2022-07-01T08:02:43;3.63;;;2.15;;
57155;SDS011;43023;59.928;10.682;2022-07-01T08:05:09;2.75;;;2.25;;
57155;SDS011;43023;59.928;10.682;2022-07-01T08:07:39;1.90;;;1.80;;
57155;SDS011;43023;59.928;10.682;2022-07-01T08:10:06;2.17;;;1.98;;
57155;SDS011;43023;59.928;10.682;2022-07-01T08:12:33;1.80;;;1.70;;
57155;SDS011;43023;59.928;10.682;2022-07-01T08:14:59;1.92;;;1.83;;
57155;SDS011;43023;59.928;10.682;2022-07-01T08:17:25;1.85;;;1.75;;
57155;SDS011;43023;59.928;10.682;2022-07-01T08:19:51;2.08;;;1.98;;
57155;SDS011;43023;59.928;10.682;2022-07-01T08:22:18;1.70;;;1.60;;
57155;SDS011;43023;59.928;10.682;2022-07-01T08:24:44;2.30;;;2.00;;
57155;SDS011;43023;59.928;10.682;2022-07-01T08:27:10;2.00;;;1.90;;
57155;SDS011;43023;59.928;10.682;2022-07-01T08:29:37;1.80;;;1.70;;
57155;SDS011;43023;59.928;10.682;2022-07-01T08:32:03;2.22;;;2.10;;
57155;SDS011;43023;59.928;10.682;2022-07-01T08:34:30;1.70;;;1.60;;
57155;SDS011;43023;59.928;10.682;2022-07-01T08:36:56;1.88;;;1.77;;
57155;SDS011;43023;59.928;10.682;2022-07-01T08:39:22;2.25;;;1.90;;
57155;SDS011;43023;59.928;10.682;2022-07-01T08:41:48;2.38;;;2.22;;
57155;SDS011;43023;59.928;10.682;2022-07-01T08:44:14;1.98;;;1.88;;
57155;SDS011;43023;59.928;10.682;2022-07-01T08:46:40;2.30;;;2.10;;
57155;SDS011;43023;59.928;10.682;2022-07-01T08:49:07;1.98;;;1.88;;
57155;SDS011;43023;59.928;10.682;2022-07-01T08:51:33;1.90;;;1.80;;
57155;SDS011;43023;59.928;10.682;2022-07-01T08:53:59;2.22;;;2.13;;
57155;SDS011;43023;59.928;10.682;2022-07-01T08:56:25;1.98;;;1.88;;
57155;SDS011;43023;59.928;10.682;2022-07-01T08:59:10;1.80;;;1.70;;
57155;SDS011;43023;59.928;10.682;2022-07-01T09:01:37;1.85;;;1.75;;
57155;SDS011;43023;59.928;10.682;2022-07-01T09:04:13;2.38;;;2.17;;
57155;SDS011;43023;59.928;10.682;2022-07-01T09:06:40;1.98;;;1.60;;
57155;SDS011;43023;59.928;10.682;2022-07-01T09:09:10;1.90;;;1.80;;
57155;SDS011;43023;59.928;10.682;2022-07-01T09:11:37;2.67;;;2.15;;
57155;SDS011;43023;59.928;10.682;2022-07-01T09:14:10;1.60;;;1.50;;
57155;SDS011;43023;59.928;10.682;2022-07-01T09:16:43;2.08;;;1.98;;
57155;SDS011;43023;59.928;10.682;2022-07-01T09:19:10;2.22;;;2.03;;
57155;SDS011;43023;59.928;10.682;2022-07-01T09:21:36;1.92;;;1.83;;
57155;SDS011;43023;59.928;10.682;2022-07-01T09:24:03;1.80;;;1.70;;
57155;SDS011;43023;59.928;10.682;2022-07-01T09:26:30;1.60;;;1.50;;
57155;SDS011;43023;59.928;10.682;2022-07-01T09:28:56;1.90;;;1.80;;
57155;SDS011;43023;59.928;10.682;2022-07-01T09:31:25;2.17;;;2.00;;
57155;SDS011;43023;59.928;10.682;2022-07-01T09:34:07;1.77;;;1.67;;
57155;SDS011;43023;59.928;10.682;2022-07-01T09:36:51;1.95;;;1.85;;
57155;SDS011;43023;59.928;10.682;2022-07-01T09:39:17;2.03;;;1.90;;
57155;SDS011;43023;59.928;10.682;2022-07-01T09:41:43;1.27;;;1.27;;
57155;SDS011;43023;59.928;10.682;2022-07-01T09:44:09;2.08;;;1.98;;
57155;SDS011;43023;59.928;10.682;2022-07-01T09:46:35;2.08;;;1.98;;
57155;SDS011;43023;59.928;10.682;2022-07-01T09:49:02;1.92;;;1.83;;
57155;SDS011;43023;59.928;10.682;2022-07-01T09:51:29;1.90;;;1.80;;
57155;SDS011;43023;59.928;10.682;2022-07-01T09:53:55;1.98;;;1.88;;
57155;SDS011;43023;59.928;10.682;2022-07-01T09:56:22;1.85;;;1.75;;
57155;SDS011;43023;59.928;10.682;2022-07-01T09:58:49;2.20;;;2.08;;
57155;SDS011;43023;59.928;10.682;2022-07-01T10:01:15;1.98;;;1.88;;
57155;SDS011;43023;59.928;10.682;2022-07-01T10:03:42;2.13;;;2.00;;
57155;SDS011;43023;59.928;10.682;2022-07-01T10:09:11;1.48;;;1.48;;
57155;SDS011;43023;59.928;10.682;2022-07-01T10:14:09;2.00;;;1.90;;
57155;SDS011;43023;59.928;10.682;2022-07-01T10:16:36;1.80;;;1.70;;
57155;SDS011;43023;59.928;10.682;2022-07-01T10:21:49;1.90;;;1.80;;
57155;SDS011;43023;59.928;10.682;2022-07-01T10:24:16;1.80;;;1.70;;
57155;SDS011;43023;59.928;10.682;2022-07-01T10:26:43;2.88;;;2.63;;
57155;SDS011;43023;59.928;10.682;2022-07-01T10:31:54;2.85;;;1.95;;
57155;SDS011;43023;59.928;10.682;2022-07-01T10:34:20;2.38;;;1.63;;
57155;SDS011;43023;59.928;10.682;2022-07-01T10:37:11;2.80;;;2.17;;
57155;SDS011;43023;59.928;10.682;2022-07-01T10:39:54;2.28;;;2.05;;
57155;SDS011;43023;59.928;10.682;2022-07-01T10:42:26;4.85;;;2.42;;
57155;SDS011;43023;59.928;10.682;2022-07-01T10:45:09;2.35;;;2.15;;
57155;SDS011;43023;59.928;10.682;2022-07-01T10:47:36;3.03;;;1.88;;
57155;SDS011;43023;59.928;10.682;2022-07-01T10:50:03;2.83;;;2.35;;
57155;SDS011;43023;59.928;10.682;2022-07-01T10:52:29;3.35;;;2.10;;
57155;SDS011;43023;59.928;10.682;2022-07-01T10:54:56;2.22;;;2.10;;
57155;SDS011;43023;59.928;10.682;2022-07-01T10:57:29;2.00;;;1.90;;
57155;SDS011;43023;59.928;10.682;2022-07-01T11:00:04;2.63;;;2.42;;
57155;SDS011;43023;59.928;10.682;2022-07-01T11:02:42;2.00;;;1.90;;
57155;SDS011;43023;59.928;10.682;2022-07-01T11:05:12;2.25;;;2.15;;
57155;SDS011;43023;59.928;10.682;2022-07-01T11:07:39;2.42;;;2.33;;
57155;SDS011;43023;59.928;10.682;2022-07-01T11:10:07;2.55;;;2.35;;
57155;SDS011;43023;59.928;10.682;2022-07-01T11:12:35;1.83;;;1.73;;
57155;SDS011;43023;59.928;10.682;2022-07-01T11:15:02;2.50;;;2.30;;
57155;SDS011;43023;59.928;10.682;2022-07-01T11:17:30;2.47;;;2.03;;
57155;SDS011;43023;59.928;10.682;2022-07-01T11:19:57;2.03;;;1.92;;
57155;SDS011;43023;59.928;10.682;2022-07-01T11:22:27;2.08;;;1.95;;
57155;SDS011;43023;59.928;10.682;2022-07-01T11:24:54;2.45;;;2.25;;
57155;SDS011;43023;59.928;10.682;2022-07-01T11:27:20;2.42;;;2.22;;
57155;SDS011;43023;59.928;10.682;2022-07-01T11:29:50;2.13;;;1.98;;
57155;SDS011;43023;59.928;10.682;2022-07-01T11:32:27;2.10;;;2.00;;
57155;SDS011;43023;59.928;10.682;2022-07-01T11:34:53;2.80;;;2.60;;
57155;SDS011;43023;59.928;10.682;2022-07-01T11:37:19;2.38;;;2.13;;
57155;SDS011;43023;59.928;10.682;2022-07-01T11:40:08;2.70;;;2.40;;
57155;SDS011;43023;59.928;10.682;2022-07-01T11:42:34;2.55;;;2.35;;
57155;SDS011;43023;59.928;10.682;2022-07-01T11:45:01;2.17;;;2.08;;
57155;SDS011;43023;59.928;10.682;2022-07-01T11:47:28;3.20;;;2.05;;
57155;SDS011;43023;59.928;10.682;2022-07-01T11:49:54;2.30;;;2.10;;
57155;SDS011;43023;59.928;10.682;2022-07-01T11:52:21;2.88;;;2.05;;
57155;SDS011;43023;59.928;10.682;2022-07-01T11:54:48;2.35;;;2.22;;
57155;SDS011;43023;59.928;10.682;2022-07-01T11:57:18;2.30;;;2.10;;
57155;SDS011;43023;59.928;10.682;2022-07-01T11:59:46;2.00;;;1.90;;
57155;SDS011;43023;59.928;10.682;2022-07-01T12:02:14;2.15;;;2.05;;
57155;SDS011;43023;59.928;10.682;2022-07-01T12:04:41;2.25;;;2.10;;
57155;SDS011;43023;59.928;10.682;2022-07-01T12:07:07;2.63;;;2.42;;
57155;SDS011;43023;59.928;10.682;2022-07-01T12:09:34;2.10;;;1.80;;
57155;SDS011;43023;59.928;10.682;2022-07-01T12:12:00;1.85;;;1.75;;
57155;SDS011;43023;59.928;10.682;2022-07-01T12:14:27;2.30;;;1.90;;
57155;SDS011;43023;59.928;10.682;2022-07-01T12:16:56;2.70;;;2.50;;
57155;SDS011;43023;59.928;10.682;2022-07-01T12:19:27;2.50;;;2.17;;
57155;SDS011;43023;59.928;10.682;2022-07-01T12:21:54;2.35;;;2.15;;
57155;SDS011;43023;59.928;10.682;2022-07-01T12:24:23;2.30;;;2.13;;
57155;SDS011;43023;59.928;10.682;2022-07-01T12:29:19;2.60;;;2.28;;
57155;SDS011;43023;59.928;10.682;2022-07-01T12:31:55;2.22;;;2.13;;
57155;SDS011;43023;59.928;10.682;2022-07-01T12:34:22;1.98;;;1.88;;
57155;SDS011;43023;59.928;10.682;2022-07-01T12:36:49;2.15;;;2.05;;
57155;SDS011;43023;59.928;10.682;2022-07-01T12:39:15;2.00;;;1.80;;
57155;SDS011;43023;59.928;10.682;2022-07-01T12:41:48;2.22;;;2.13;;
57155;SDS011;43023;59.928;10.682;2022-07-01T12:46:46;2.08;;;1.98;;
57155;SDS011;43023;59.928;10.682;2022-07-01T12:49:22;2.00;;;1.90;;
57155;SDS011;43023;59.928;10.682;2022-07-01T12:51:49;2.03;;;1.92;;
57155;SDS011;43023;59.928;10.682;2022-07-01T12:54:34;1.92;;;1.70;;
57155;SDS011;43023;59.928;10.682;2022-07-01T12:57:03;1.90;;;1.80;;
57155;SDS011;43023;59.928;10.682;2022-07-01T12:59:29;1.90;;;1.80;;
57155;SDS011;43023;59.928;10.682;2022-07-01T13:01:55;2.50;;;2.30;;
57155;SDS011;43023;59.928;10.682;2022-07-01T13:04:26;3.03;;;1.90;;
57155;SDS011;43023;59.928;10.682;2022-07-01T13:06:54;2.25;;;2.05;;
57155;SDS011;43023;59.928;10.682;2022-07-01T13:09:20;2.00;;;1.90;;
57155;SDS011;43023;59.928;10.682;2022-07-01T13:11:46;4.43;;;2.25;;
57155;SDS011;43023;59.928;10.682;2022-07-01T13:14:12;3.78;;;2.08;;
57155;SDS011;43023;59.928;10.682;2022-07-01T13:16:38;2.20;;;2.10;;
57155;SDS011;43023;59.928;10.682;2022-07-01T13:19:04;1.98;;;1.88;;
57155;SDS011;43023;59.928;10.682;2022-07-01T13:21:30;1.88;;;1.77;;
57155;SDS011;43023;59.928;10.682;2022-07-01T13:23:56;2.33;;;2.05;;
57155;SDS011;43023;59.928;10.682;2022-07-01T13:26:22;2.25;;;2.05;;
57155;SDS011;43023;59.928;10.682;2022-07-01T13:28:48;2.95;;;2.42;;
57155;SDS011;43023;59.928;10.682;2022-07-01T13:31:14;2.10;;;1.90;;
57155;SDS011;43023;59.928;10.682;2022-07-01T13:33:40;1.80;;;1.70;;
57155;SDS011;43023;59.928;10.682;2022-07-01T13:36:06;2.22;;;2.00;;
57155;SDS011;43023;59.928;10.682;2022-07-01T13:38:32;2.42;;;2.22;;
57155;SDS011;43023;59.928;10.682;2022-07-01T13:40:58;1.90;;;1.75;;
57155;SDS011;43023;59.928;10.682;2022-07-01T13:43:25;2.85;;;1.92;;
57155;SDS011;43023;59.928;10.682;2022-07-01T13:45:51;2.15;;;2.05;;
57155;SDS011;43023;59.928;10.682;2022-07-01T13:48:17;2.45;;;1.77;;
57155;SDS011;43023;59.928;10.682;2022-07-01T13:50:43;2.20;;;1.98;;
57155;SDS011;43023;59.928;10.682;2022-07-01T13:53:09;2.60;;;1.95;;
57155;SDS011;43023;59.928;10.682;2022-07-01T13:55:35;2.88;;;2.47;;
57155;SDS011;43023;59.928;10.682;2022-07-01T13:58:01;3.05;;;2.17;;
57155;SDS011;43023;59.928;10.682;2022-07-01T14:00:27;3.17;;;2.10;;
57155;SDS011;43023;59.928;10.682;2022-07-01T14:02:53;3.17;;;2.00;;
57155;SDS011;43023;59.928;10.682;2022-07-01T14:05:19;2.53;;;2.33;;
57155;SDS011;43023;59.928;10.682;2022-07-01T14:07:45;3.10;;;2.10;;
57155;SDS011;43023;59.928;10.682;2022-07-01T14:10:11;2.35;;;2.10;;
57155;SDS011;43023;59.928;10.682;2022-07-01T14:12:37;1.85;;;1.75;;
57155;SDS011;43023;59.928;10.682;2022-07-01T14:15:03;2.40;;;2.20;;
57155;SDS011;43023;59.928;10.682;2022-07-01T14:17:29;2.47;;;2.20;;
57155;SDS011;43023;59.928;10.682;2022-07-01T14:19:56;2.75;;;2.35;;
57155;SDS011;43023;59.928;10.682;2022-07-01T14:22:23;2.10;;;2.00;;
57155;SDS011;43023;59.928;10.682;2022-07-01T14:24:49;2.65;;;2.45;;
57155;SDS011;43023;59.928;10.682;2022-07-01T14:27:15;2.38;;;1.88;;
57155;SDS011;43023;59.928;10.682;2022-07-01T14:29:41;1.98;;;1.88;;
57155;SDS011;43023;59.928;10.682;2022-07-01T14:32:07;3.00;;;2.40;;
57155;SDS011;43023;59.928;10.682;2022-07-01T14:34:33;2.00;;;1.90;;
57155;SDS011;43023;59.928;10.682;2022-07-01T14:36:59;2.50;;;2.30;;
57155;SDS011;43023;59.928;10.682;2022-07-01T14:39:25;2.17;;;2.08;;
57155;SDS011;43023;59.928;10.682;2022-07-01T14:41:51;2.17;;;2.08;;
57155;SDS011;43023;59.928;10.682;2022-07-01T14:44:18;4.32;;;2.45;;
57155;SDS011;43023;59.928;10.682;2022-07-01T14:46:44;2.15;;;2.05;;
57155;SDS011;43023;59.928;10.682;2022-07-01T14:49:10;2.50;;;2.33;;
57155;SDS011;43023;59.928;10.682;2022-07-01T14:51:37;2.15;;;2.05;;
57155;SDS011;43023;59.928;10.682;2022-07-01T14:54:03;2.53;;;2.33;;
57155;SDS011;43023;59.928;10.682;2022-07-01T14:56:29;2.20;;;2.10;;